Terminal Aerodrome Forecast
Issued by NWS

Current Version | Previous Version | Text Only | Print | Product List | Glossary On
Versions: 1 2 3 4 5 6 7 8 9 10 11 12
738
FTPA31 PHFO 131720
TAFHNY
TAF
PHNY 131720Z 1318/1418 05007KT P6SM FEW040
     FM131900 28009KT P6SM FEW015 SCT020
     FM140200 04010KT P6SM FEW020 BKN035
     FM140900 05006KT P6SM FEW035
      AMD NOT SKED=

USA.gov is the U.S. government's official web portal to all federal, state and local government web resources and services.